sensor_id;sensor_type;location;lat;lon;timestamp;pressure;altitude;pressure_sealevel;temperature;humidity
18749;BME280;9503;53.560;10.246;2023-04-26T00:01:57;100741.38;;;9.57;73.62
18749;BME280;9503;53.560;10.246;2023-04-26T00:04:24;100732.53;;;9.68;73.84
18749;BME280;9503;53.560;10.246;2023-04-26T00:06:53;100733.91;;;10.12;73.12
18749;BME280;9503;53.560;10.246;2023-04-26T00:09:21;100737.88;;;9.89;73.18
18749;BME280;9503;53.560;10.246;2023-04-26T00:11:48;100731.75;;;9.69;73.43
18749;BME280;9503;53.560;10.246;2023-04-26T00:14:14;100731.84;;;10.05;72.44
18749;BME280;9503;53.560;10.246;2023-04-26T00:16:41;100735.25;;;9.87;71.73
18749;BME280;9503;53.560;10.246;2023-04-26T00:19:08;100733.72;;;9.91;71.96
18749;BME280;9503;53.560;10.246;2023-04-26T00:21:36;100736.06;;;9.86;72.23
18749;BME280;9503;53.560;10.246;2023-04-26T00:24:02;100738.94;;;9.60;73.03
18749;BME280;9503;53.560;10.246;2023-04-26T00:26:31;100734.63;;;9.75;73.25
18749;BME280;9503;53.560;10.246;2023-04-26T00:28:59;100745.25;;;9.83;73.41
18749;BME280;9503;53.560;10.246;2023-04-26T00:31:25;100741.38;;;9.57;74.43
18749;BME280;9503;53.560;10.246;2023-04-26T00:33:52;100743.75;;;9.70;73.43
18749;BME280;9503;53.560;10.246;2023-04-26T00:36:18;100749.81;;;9.39;75.62
18749;BME280;9503;53.560;10.246;2023-04-26T00:38:45;100744.94;;;9.93;73.88
18749;BME280;9503;53.560;10.246;2023-04-26T00:41:12;100747.91;;;9.68;72.88
18749;BME280;9503;53.560;10.246;2023-04-26T00:43:40;100746.63;;;9.92;72.16
18749;BME280;9503;53.560;10.246;2023-04-26T00:46:08;100745.28;;;9.50;73.73
18749;BME280;9503;53.560;10.246;2023-04-26T00:48:35;100726.53;;;10.00;72.44
18749;BME280;9503;53.560;10.246;2023-04-26T00:51:02;100736.38;;;9.60;74.00
18749;BME280;9503;53.560;10.246;2023-04-26T00:53:30;100733.50;;;9.86;73.58
18749;BME280;9503;53.560;10.246;2023-04-26T00:55:58;100740.53;;;9.74;72.48
18749;BME280;9503;53.560;10.246;2023-04-26T00:58:25;100738.47;;;9.51;74.61
18749;BME280;9503;53.560;10.246;2023-04-26T01:00:53;100744.06;;;9.44;73.78
18749;BME280;9503;53.560;10.246;2023-04-26T01:03:20;100738.16;;;9.77;73.85
18749;BME280;9503;53.560;10.246;2023-04-26T01:05:47;100737.97;;;9.74;74.18
18749;BME280;9503;53.560;10.246;2023-04-26T01:08:13;100740.88;;;9.48;73.19
18749;BME280;9503;53.560;10.246;2023-04-26T01:10:45;100729.84;;;9.65;73.83
18749;BME280;9503;53.560;10.246;2023-04-26T01:13:12;100735.31;;;9.89;72.55
18749;BME280;9503;53.560;10.246;2023-04-26T01:15:42;100747.25;;;9.23;73.99
18749;BME280;9503;53.560;10.246;2023-04-26T01:18:10;100747.28;;;9.72;73.06
18749;BME280;9503;53.560;10.246;2023-04-26T01:20:38;100743.66;;;9.52;73.54
18749;BME280;9503;53.560;10.246;2023-04-26T01:23:06;100736.84;;;9.69;73.29
18749;BME280;9503;53.560;10.246;2023-04-26T01:25:32;100752.06;;;9.66;74.08
18749;BME280;9503;53.560;10.246;2023-04-26T01:27:59;100751.34;;;9.36;74.18
18749;BME280;9503;53.560;10.246;2023-04-26T01:30:26;100752.03;;;9.17;76.11
18749;BME280;9503;53.560;10.246;2023-04-26T01:32:55;100758.06;;;9.34;76.07
18749;BME280;9503;53.560;10.246;2023-04-26T01:35:21;100754.63;;;8.71;78.64
18749;BME280;9503;53.560;10.246;2023-04-26T01:37:48;100756.34;;;8.41;79.78
18749;BME280;9503;53.560;10.246;2023-04-26T01:40:16;100760.94;;;8.93;77.34
18749;BME280;9503;53.560;10.246;2023-04-26T01:42:42;100765.25;;;8.94;77.15
18749;BME280;9503;53.560;10.246;2023-04-26T01:45:10;100766.16;;;8.79;77.92
18749;BME280;9503;53.560;10.246;2023-04-26T01:47:36;100761.00;;;8.48;79.91
18749;BME280;9503;53.560;10.246;2023-04-26T01:50:04;100763.81;;;8.99;77.86
18749;BME280;9503;53.560;10.246;2023-04-26T01:52:31;100767.69;;;8.61;79.47
18749;BME280;9503;53.560;10.246;2023-04-26T01:54:57;100768.16;;;8.54;79.16
18749;BME280;9503;53.560;10.246;2023-04-26T01:57:25;100759.59;;;8.53;79.48
18749;BME280;9503;53.560;10.246;2023-04-26T01:59:52;100766.25;;;8.66;78.82
18749;BME280;9503;53.560;10.246;2023-04-26T02:02:21;100766.19;;;8.65;78.18
18749;BME280;9503;53.560;10.246;2023-04-26T02:04:47;100763.97;;;8.26;81.15
18749;BME280;9503;53.560;10.246;2023-04-26T02:07:14;100762.28;;;8.71;80.35
18749;BME280;9503;53.560;10.246;2023-04-26T02:09:43;100762.53;;;8.45;78.58
18749;BME280;9503;53.560;10.246;2023-04-26T02:12:10;100760.94;;;8.47;79.80
18749;BME280;9503;53.560;10.246;2023-04-26T02:14:38;100761.91;;;8.80;79.20
18749;BME280;9503;53.560;10.246;2023-04-26T02:17:05;100761.34;;;8.69;77.56
18749;BME280;9503;53.560;10.246;2023-04-26T02:19:33;100764.00;;;8.56;80.17
18749;BME280;9503;53.560;10.246;2023-04-26T02:21:59;100763.00;;;8.69;79.38
18749;BME280;9503;53.560;10.246;2023-04-26T02:24:26;100771.53;;;8.84;78.59
18749;BME280;9503;53.560;10.246;2023-04-26T02:26:54;100769.22;;;8.89;78.53
18749;BME280;9503;53.560;10.246;2023-04-26T02:29:21;100777.72;;;9.19;76.74
18749;BME280;9503;53.560;10.246;2023-04-26T02:31:50;100783.00;;;9.38;76.33
18749;BME280;9503;53.560;10.246;2023-04-26T02:34:16;100783.75;;;9.52;76.76
18749;BME280;9503;53.560;10.246;2023-04-26T02:36:43;100786.38;;;8.60;79.91
18749;BME280;9503;53.560;10.246;2023-04-26T02:39:11;100785.56;;;8.76;79.83
18749;BME280;9503;53.560;10.246;2023-04-26T02:41:38;100779.16;;;8.68;79.18
18749;BME280;9503;53.560;10.246;2023-04-26T02:44:05;100783.41;;;8.98;80.03
18749;BME280;9503;53.560;10.246;2023-04-26T02:46:32;100776.81;;;8.72;80.46
18749;BME280;9503;53.560;10.246;2023-04-26T02:48:59;100778.09;;;8.95;80.86
18749;BME280;9503;53.560;10.246;2023-04-26T02:51:27;100788.28;;;8.79;81.25
18749;BME280;9503;53.560;10.246;2023-04-26T02:53:53;100782.97;;;9.22;80.79
18749;BME280;9503;53.560;10.246;2023-04-26T02:56:20;100785.72;;;8.35;80.31
18749;BME280;9503;53.560;10.246;2023-04-26T02:58:47;100777.44;;;8.83;80.88
18749;BME280;9503;53.560;10.246;2023-04-26T03:01:13;100774.94;;;9.47;77.34
18749;BME280;9503;53.560;10.246;2023-04-26T03:03:41;100775.38;;;9.23;78.16
18749;BME280;9503;53.560;10.246;2023-04-26T03:06:09;100773.69;;;8.47;81.19
18749;BME280;9503;53.560;10.246;2023-04-26T03:08:35;100774.22;;;8.56;80.32
18749;BME280;9503;53.560;10.246;2023-04-26T03:11:02;100775.09;;;9.02;78.83
18749;BME280;9503;53.560;10.246;2023-04-26T03:13:29;100772.63;;;9.51;76.07
18749;BME280;9503;53.560;10.246;2023-04-26T03:15:55;100764.28;;;8.92;77.60
18749;BME280;9503;53.560;10.246;2023-04-26T03:18:22;100770.16;;;8.60;78.86
18749;BME280;9503;53.560;10.246;2023-04-26T03:20:49;100771.22;;;8.63;80.28
18749;BME280;9503;53.560;10.246;2023-04-26T03:23:17;100774.19;;;8.71;79.56
18749;BME280;9503;53.560;10.246;2023-04-26T03:25:44;100776.59;;;8.53;80.52
18749;BME280;9503;53.560;10.246;2023-04-26T03:28:11;100781.09;;;8.57;80.27
18749;BME280;9503;53.560;10.246;2023-04-26T03:30:37;100777.13;;;8.62;80.78
18749;BME280;9503;53.560;10.246;2023-04-26T03:33:04;100780.97;;;8.70;81.02
18749;BME280;9503;53.560;10.246;2023-04-26T03:35:31;100773.56;;;8.90;80.33
18749;BME280;9503;53.560;10.246;2023-04-26T03:37:57;100786.03;;;9.31;78.58
18749;BME280;9503;53.560;10.246;2023-04-26T03:40:25;100778.78;;;9.87;77.38
18749;BME280;9503;53.560;10.246;2023-04-26T03:42:52;100780.53;;;10.05;76.21
18749;BME280;9503;53.560;10.246;2023-04-26T03:45:18;100785.06;;;10.27;75.75
18749;BME280;9503;53.560;10.246;2023-04-26T03:47:45;100787.53;;;10.41;74.66
18749;BME280;9503;53.560;10.246;2023-04-26T03:50:11;100787.53;;;10.41;74.12
18749;BME280;9503;53.560;10.246;2023-04-26T03:52:38;100787.31;;;10.37;74.06
18749;BME280;9503;53.560;10.246;2023-04-26T03:55:06;100778.38;;;10.29;73.90
18749;BME280;9503;53.560;10.246;2023-04-26T03:57:35;100778.41;;;9.80;75.50
18749;BME280;9503;53.560;10.246;2023-04-26T04:00:02;100783.41;;;9.62;76.12
18749;BME280;9503;53.560;10.246;2023-04-26T04:02:32;100777.91;;;9.87;75.99
18749;BME280;9503;53.560;10.246;2023-04-26T04:04:59;100780.38;;;9.53;75.94
18749;BME280;9503;53.560;10.246;2023-04-26T04:07:26;100773.63;;;9.22;77.39
18749;BME280;9503;53.560;10.246;2023-04-26T04:09:52;100779.50;;;9.05;77.79
18749;BME280;9503;53.560;10.246;2023-04-26T04:12:19;100779.97;;;9.29;77.93
18749;BME280;9503;53.560;10.246;2023-04-26T04:14:48;100784.84;;;9.09;78.32
18749;BME280;9503;53.560;10.246;2023-04-26T04:17:15;100787.38;;;9.24;78.43
18749;BME280;9503;53.560;10.246;2023-04-26T04:19:41;100784.31;;;9.15;77.69
18749;BME280;9503;53.560;10.246;2023-04-26T04:22:09;100786.47;;;9.07;77.97
18749;BME280;9503;53.560;10.246;2023-04-26T04:24:35;100787.66;;;8.98;79.44
18749;BME280;9503;53.560;10.246;2023-04-26T04:27:02;100787.69;;;9.14;77.58
18749;BME280;9503;53.560;10.246;2023-04-26T04:29:29;100793.69;;;9.14;78.74
18749;BME280;9503;53.560;10.246;2023-04-26T04:31:57;100798.63;;;9.43;76.86
18749;BME280;9503;53.560;10.246;2023-04-26T04:34:24;100797.25;;;9.33;78.42
18749;BME280;9503;53.560;10.246;2023-04-26T04:36:50;100803.47;;;9.38;77.47
18749;BME280;9503;53.560;10.246;2023-04-26T04:39:17;100809.03;;;9.78;76.46
18749;BME280;9503;53.560;10.246;2023-04-26T04:41:43;100810.06;;;9.98;75.79
18749;BME280;9503;53.560;10.246;2023-04-26T04:44:12;100809.03;;;9.94;75.75
18749;BME280;9503;53.560;10.246;2023-04-26T04:46:41;100811.50;;;10.26;74.83
18749;BME280;9503;53.560;10.246;2023-04-26T04:49:10;100814.94;;;10.26;74.34
18749;BME280;9503;53.560;10.246;2023-04-26T04:51:37;100816.88;;;9.97;75.24
18749;BME280;9503;53.560;10.246;2023-04-26T04:54:10;100819.38;;;9.80;76.88
18749;BME280;9503;53.560;10.246;2023-04-26T04:56:37;100815.19;;;9.82;76.28
18749;BME280;9503;53.560;10.246;2023-04-26T04:59:04;100821.13;;;9.64;77.02
18749;BME280;9503;53.560;10.246;2023-04-26T05:01:31;100820.84;;;9.44;77.72
18749;BME280;9503;53.560;10.246;2023-04-26T05:03:57;100822.31;;;9.55;78.35
18749;BME280;9503;53.560;10.246;2023-04-26T05:06:26;100824.91;;;9.40;78.20
18749;BME280;9503;53.560;10.246;2023-04-26T05:08:53;100822.88;;;9.82;77.49
18749;BME280;9503;53.560;10.246;2023-04-26T05:11:19;100817.09;;;10.18;76.35
18749;BME280;9503;53.560;10.246;2023-04-26T05:13:47;100818.06;;;10.04;75.66
18749;BME280;9503;53.560;10.246;2023-04-26T05:16:14;100818.56;;;9.64;76.91
18749;BME280;9503;53.560;10.246;2023-04-26T05:18:40;100819.34;;;9.63;76.78
18749;BME280;9503;53.560;10.246;2023-04-26T05:21:07;100818.44;;;10.12;76.47
18749;BME280;9503;53.560;10.246;2023-04-26T05:23:35;100811.88;;;10.33;74.84
18749;BME280;9503;53.560;10.246;2023-04-26T05:26:02;100820.38;;;9.67;76.26
18749;BME280;9503;53.560;10.246;2023-04-26T05:28:30;100827.78;;;9.46;78.47
18749;BME280;9503;53.560;10.246;2023-04-26T05:30:57;100818.56;;;9.64;78.16
18749;BME280;9503;53.560;10.246;2023-04-26T05:33:26;100814.78;;;9.90;77.97
18749;BME280;9503;53.560;10.246;2023-04-26T05:35:53;100813.50;;;10.15;74.76
18749;BME280;9503;53.560;10.246;2023-04-26T05:38:22;100814.09;;;10.60;75.15
18749;BME280;9503;53.560;10.246;2023-04-26T05:40:50;100815.72;;;10.41;74.33
18749;BME280;9503;53.560;10.246;2023-04-26T05:43:17;100824.69;;;10.17;75.36
18749;BME280;9503;53.560;10.246;2023-04-26T05:45:49;100828.88;;;10.31;76.38
18749;BME280;9503;53.560;10.246;2023-04-26T05:48:16;100821.53;;;9.72;77.47
18749;BME280;9503;53.560;10.246;2023-04-26T05:50:42;100830.28;;;10.42;75.52
18749;BME280;9503;53.560;10.246;2023-04-26T05:53:09;100835.59;;;10.45;74.56
18749;BME280;9503;53.560;10.246;2023-04-26T05:55:36;100841.06;;;11.41;73.67
18749;BME280;9503;53.560;10.246;2023-04-26T05:58:06;100844.34;;;12.33;68.66
18749;BME280;9503;53.560;10.246;2023-04-26T06:00:33;100843.91;;;11.66;68.15
18749;BME280;9503;53.560;10.246;2023-04-26T06:03:01;100846.81;;;13.14;65.81
18749;BME280;9503;53.560;10.246;2023-04-26T06:05:28;100850.06;;;12.87;65.25
18749;BME280;9503;53.560;10.246;2023-04-26T06:07:54;100845.28;;;12.76;66.14
18749;BME280;9503;53.560;10.246;2023-04-26T06:10:21;100847.41;;;11.49;69.04
18749;BME280;9503;53.560;10.246;2023-04-26T06:12:51;100837.19;;;12.26;67.29
18749;BME280;9503;53.560;10.246;2023-04-26T06:15:19;100838.38;;;12.13;68.16
18749;BME280;9503;53.560;10.246;2023-04-26T06:17:45;100831.47;;;12.94;66.65
18749;BME280;9503;53.560;10.246;2023-04-26T06:20:12;100829.84;;;12.76;65.38
18749;BME280;9503;53.560;10.246;2023-04-26T06:22:38;100832.00;;;12.25;66.19
18749;BME280;9503;53.560;10.246;2023-04-26T06:25:06;100838.41;;;11.76;69.17
18749;BME280;9503;53.560;10.246;2023-04-26T06:27:33;100842.56;;;11.74;68.27
18749;BME280;9503;53.560;10.246;2023-04-26T06:29:59;100837.59;;;11.40;70.32
18749;BME280;9503;53.560;10.246;2023-04-26T06:32:27;100843.38;;;11.54;68.77
18749;BME280;9503;53.560;10.246;2023-04-26T06:34:54;100843.56;;;11.21;69.72
18749;BME280;9503;53.560;10.246;2023-04-26T06:37:21;100844.78;;;11.47;68.80
18749;BME280;9503;53.560;10.246;2023-04-26T06:39:47;100846.88;;;12.32;68.12
18749;BME280;9503;53.560;10.246;2023-04-26T06:42:14;100846.59;;;12.66;65.44
18749;BME280;9503;53.560;10.246;2023-04-26T06:44:41;100850.06;;;12.66;64.79
18749;BME280;9503;53.560;10.246;2023-04-26T06:47:07;100842.91;;;12.80;65.02
18749;BME280;9503;53.560;10.246;2023-04-26T06:49:37;100847.44;;;12.86;65.44
18749;BME280;9503;53.560;10.246;2023-04-26T06:52:03;100848.66;;;12.75;65.00
18749;BME280;9503;53.560;10.246;2023-04-26T06:54:31;100848.84;;;13.66;63.86
18749;BME280;9503;53.560;10.246;2023-04-26T06:56:58;100845.97;;;12.71;64.82
18749;BME280;9503;53.560;10.246;2023-04-26T06:59:25;100834.88;;;12.72;65.44
18749;BME280;9503;53.560;10.246;2023-04-26T07:01:52;100835.72;;;13.15;62.90
18749;BME280;9503;53.560;10.246;2023-04-26T07:04:19;100840.09;;;13.17;62.46
18749;BME280;9503;53.560;10.246;2023-04-26T07:06:47;100841.53;;;14.00;61.04
18749;BME280;9503;53.560;10.246;2023-04-26T07:09:14;100845.63;;;13.26;62.02
18749;BME280;9503;53.560;10.246;2023-04-26T07:11:41;100849.78;;;12.60;64.21
18749;BME280;9503;53.560;10.246;2023-04-26T07:14:09;100837.31;;;12.49;64.92
18749;BME280;9503;53.560;10.246;2023-04-26T07:16:36;100848.34;;;12.67;64.27
18749;BME280;9503;53.560;10.246;2023-04-26T07:19:02;100848.31;;;12.46;65.61
18749;BME280;9503;53.560;10.246;2023-04-26T07:21:29;100847.66;;;12.92;63.26
18749;BME280;9503;53.560;10.246;2023-04-26T07:23:57;100847.97;;;12.99;63.92
18749;BME280;9503;53.560;10.246;2023-04-26T07:26:24;100847.28;;;14.17;61.40
18749;BME280;9503;53.560;10.246;2023-04-26T07:28:51;100844.81;;;13.72;60.32
18749;BME280;9503;53.560;10.246;2023-04-26T07:31:18;100855.16;;;13.29;63.04
18749;BME280;9503;53.560;10.246;2023-04-26T07:33:45;100843.97;;;12.85;63.04
18749;BME280;9503;53.560;10.246;2023-04-26T07:36:11;100854.72;;;12.15;63.20
18749;BME280;9503;53.560;10.246;2023-04-26T07:38:38;100855.88;;;11.66;64.52
18749;BME280;9503;53.560;10.246;2023-04-26T07:41:06;100853.81;;;12.75;63.36
18749;BME280;9503;53.560;10.246;2023-04-26T07:43:34;100852.44;;;13.24;61.94
18749;BME280;9503;53.560;10.246;2023-04-26T07:46:01;100861.06;;;13.94;60.39
18749;BME280;9503;53.560;10.246;2023-04-26T07:48:27;100868.13;;;13.75;59.22
18749;BME280;9503;53.560;10.246;2023-04-26T07:50:54;100868.78;;;13.70;59.43
18749;BME280;9503;53.560;10.246;2023-04-26T07:53:21;100859.34;;;13.70;58.39
18749;BME280;9503;53.560;10.246;2023-04-26T07:55:49;100863.63;;;14.65;57.02
18749;BME280;9503;53.560;10.246;2023-04-26T07:58:18;100852.19;;;14.33;56.54
18749;BME280;9503;53.560;10.246;2023-04-26T08:00:45;100857.97;;;14.50;55.45
18749;BME280;9503;53.560;10.246;2023-04-26T08:03:13;100859.03;;;15.36;54.57
18749;BME280;9503;53.560;10.246;2023-04-26T08:05:40;100864.63;;;15.22;54.66
18749;BME280;9503;53.560;10.246;2023-04-26T08:08:07;100863.59;;;14.40;56.10
18749;BME280;9503;53.560;10.246;2023-04-26T08:10:33;100865.78;;;14.53;56.19
18749;BME280;9503;53.560;10.246;2023-04-26T08:13:00;100862.56;;;15.67;53.60
18749;BME280;9503;53.560;10.246;2023-04-26T08:15:29;100869.75;;;15.77;52.44
18749;BME280;9503;53.560;10.246;2023-04-26T08:17:56;100870.50;;;13.93;54.54
18749;BME280;9503;53.560;10.246;2023-04-26T08:20:23;100870.31;;;14.84;52.96
18749;BME280;9503;53.560;10.246;2023-04-26T08:22:54;100887.34;;;13.39;56.41
18749;BME280;9503;53.560;10.246;2023-04-26T08:25:21;100903.56;;;12.75;63.09
18749;BME280;9503;53.560;10.246;2023-04-26T08:27:48;100909.69;;;11.62;70.91
18749;BME280;9503;53.560;10.246;2023-04-26T08:30:15;100905.56;;;11.30;74.78
18749;BME280;9503;53.560;10.246;2023-04-26T08:32:43;100900.91;;;11.40;75.98
18749;BME280;9503;53.560;10.246;2023-04-26T08:35:10;100903.09;;;12.43;74.66
18749;BME280;9503;53.560;10.246;2023-04-26T08:37:36;100892.16;;;12.68;70.34
18749;BME280;9503;53.560;10.246;2023-04-26T08:40:04;100895.16;;;12.58;71.50
18749;BME280;9503;53.560;10.246;2023-04-26T08:42:38;100898.13;;;12.88;69.45
18749;BME280;9503;53.560;10.246;2023-04-26T08:45:07;100897.03;;;12.62;70.41
18749;BME280;9503;53.560;10.246;2023-04-26T08:47:39;100907.00;;;11.97;70.79
18749;BME280;9503;53.560;10.246;2023-04-26T08:50:11;100905.22;;;11.96;72.75
18749;BME280;9503;53.560;10.246;2023-04-26T08:52:39;100904.97;;;11.72;72.09
18749;BME280;9503;53.560;10.246;2023-04-26T08:55:07;100914.16;;;12.04;74.33
18749;BME280;9503;53.560;10.246;2023-04-26T08:57:35;100913.00;;;12.55;70.59
18749;BME280;9503;53.560;10.246;2023-04-26T09:00:03;100905.03;;;13.52;69.77
18749;BME280;9503;53.560;10.246;2023-04-26T09:02:34;100908.75;;;13.38;69.84
18749;BME280;9503;53.560;10.246;2023-04-26T09:05:01;100908.53;;;13.12;68.76
18749;BME280;9503;53.560;10.246;2023-04-26T09:07:31;100905.38;;;13.39;68.57
18749;BME280;9503;53.560;10.246;2023-04-26T09:09:58;100905.09;;;13.53;66.96
18749;BME280;9503;53.560;10.246;2023-04-26T09:12:26;100900.09;;;14.03;64.58
18749;BME280;9503;53.560;10.246;2023-04-26T09:14:52;100897.66;;;12.78;66.37
18749;BME280;9503;53.560;10.246;2023-04-26T09:17:24;100892.69;;;14.12;63.39
18749;BME280;9503;53.560;10.246;2023-04-26T09:19:52;100893.91;;;14.46;62.62
18749;BME280;9503;53.560;10.246;2023-04-26T09:22:27;100898.41;;;14.27;60.77
18749;BME280;9503;53.560;10.246;2023-04-26T09:24:56;100899.84;;;14.69;59.60
18749;BME280;9503;53.560;10.246;2023-04-26T09:27:31;100889.25;;;15.12;56.28
18749;BME280;9503;53.560;10.246;2023-04-26T09:30:01;100907.88;;;14.76;59.05
18749;BME280;9503;53.560;10.246;2023-04-26T09:32:42;100892.78;;;14.88;56.74
18749;BME280;9503;53.560;10.246;2023-04-26T09:35:20;100895.41;;;14.17;60.86
18749;BME280;9503;53.560;10.246;2023-04-26T09:37:50;100894.06;;;13.80;62.13
18749;BME280;9503;53.560;10.246;2023-04-26T09:40:19;100909.00;;;13.89;62.58
18749;BME280;9503;53.560;10.246;2023-04-26T09:42:55;100900.47;;;13.45;61.96
18749;BME280;9503;53.560;10.246;2023-04-26T09:45:22;100899.84;;;13.30;63.43
18749;BME280;9503;53.560;10.246;2023-04-26T09:47:49;100897.88;;;13.45;65.26
18749;BME280;9503;53.560;10.246;2023-04-26T09:50:25;100898.34;;;13.57;65.34
18749;BME280;9503;53.560;10.246;2023-04-26T09:52:52;100906.00;;;13.78;64.87
18749;BME280;9503;53.560;10.246;2023-04-26T09:55:27;100904.94;;;13.73;64.69
18749;BME280;9503;53.560;10.246;2023-04-26T09:57:55;100902.06;;;14.34;63.87
18749;BME280;9503;53.560;10.246;2023-04-26T10:00:23;100887.34;;;13.83;60.67
18749;BME280;9503;53.560;10.246;2023-04-26T10:02:51;100893.78;;;14.67;58.66
18749;BME280;9503;53.560;10.246;2023-04-26T10:05:18;100896.13;;;15.38;55.74
18749;BME280;9503;53.560;10.246;2023-04-26T10:07:46;100895.88;;;15.86;55.38
18749;BME280;9503;53.560;10.246;2023-04-26T10:10:13;100897.31;;;15.21;54.00
18749;BME280;9503;53.560;10.246;2023-04-26T10:12:41;100887.91;;;14.47;54.66
18749;BME280;9503;53.560;10.246;2023-04-26T10:15:08;100895.59;;;14.69;53.90
18749;BME280;9503;53.560;10.246;2023-04-26T10:17:36;100900.09;;;15.83;52.55
18749;BME280;9503;53.560;10.246;2023-04-26T10:20:04;100896.25;;;16.30;50.97
18749;BME280;9503;53.560;10.246;2023-04-26T10:22:36;100892.25;;;16.40;50.31
18749;BME280;9503;53.560;10.246;2023-04-26T10:25:08;100902.03;;;16.83;49.36
18749;BME280;9503;53.560;10.246;2023-04-26T10:27:49;100896.03;;;17.19;48.94
18749;BME280;9503;53.560;10.246;2023-04-26T10:30:18;100892.56;;;16.83;47.54
18749;BME280;9503;53.560;10.246;2023-04-26T10:33:15;100889.13;;;15.91;48.81
18749;BME280;9503;53.560;10.246;2023-04-26T10:36:04;100898.19;;;16.06;48.72
18749;BME280;9503;53.560;10.246;2023-04-26T10:38:31;100900.06;;;15.27;51.86
18749;BME280;9503;53.560;10.246;2023-04-26T10:41:26;100893.97;;;15.25;53.46
18749;BME280;9503;53.560;10.246;2023-04-26T10:43:56;100899.44;;;14.56;56.08
18749;BME280;9503;53.560;10.246;2023-04-26T10:46:37;100900.75;;;13.97;55.89
18749;BME280;9503;53.560;10.246;2023-04-26T10:49:15;100905.38;;;14.54;54.40
18749;BME280;9503;53.560;10.246;2023-04-26T10:52:07;100908.19;;;14.37;54.28
18749;BME280;9503;53.560;10.246;2023-04-26T10:54:53;100901.81;;;15.01;54.37
18749;BME280;9503;53.560;10.246;2023-04-26T10:57:21;100906.41;;;14.59;53.52
18749;BME280;9503;53.560;10.246;2023-04-26T11:03:06;100898.31;;;14.74;54.53
18749;BME280;9503;53.560;10.246;2023-04-26T11:05:51;100899.50;;;14.83;55.22
18749;BME280;9503;53.560;10.246;2023-04-26T11:08:20;100903.56;;;15.83;53.42
18749;BME280;9503;53.560;10.246;2023-04-26T11:10:52;100895.97;;;15.61;53.00
18749;BME280;9503;53.560;10.246;2023-04-26T11:13:21;100895.41;;;15.42;53.31
18749;BME280;9503;53.560;10.246;2023-04-26T11:15:52;100903.84;;;14.84;54.39
18749;BME280;9503;53.560;10.246;2023-04-26T11:18:20;100910.78;;;14.85;53.53
18749;BME280;9503;53.560;10.246;2023-04-26T11:20:47;100904.13;;;14.92;56.33
18749;BME280;9503;53.560;10.246;2023-04-26T11:23:14;100921.59;;;15.01;55.63
18749;BME280;9503;53.560;10.246;2023-04-26T11:25:43;100916.94;;;14.90;54.21
18749;BME280;9503;53.560;10.246;2023-04-26T11:28:10;100915.41;;;14.46;55.29
18749;BME280;9503;53.560;10.246;2023-04-26T11:30:37;100920.78;;;13.82;56.99
18749;BME280;9503;53.560;10.246;2023-04-26T11:33:03;100917.53;;;15.61;52.49
18749;BME280;9503;53.560;10.246;2023-04-26T11:35:34;100929.03;;;15.99;47.88
18749;BME280;9503;53.560;10.246;2023-04-26T11:38:03;100918.47;;;15.36;48.62
18749;BME280;9503;53.560;10.246;2023-04-26T11:40:31;100915.56;;;17.42;45.93
18749;BME280;9503;53.560;10.246;2023-04-26T11:43:01;100915.84;;;16.52;47.40
18749;BME280;9503;53.560;10.246;2023-04-26T11:45:27;100919.13;;;16.76;48.36
18749;BME280;9503;53.560;10.246;2023-04-26T11:47:54;100908.25;;;16.90;48.10
18749;BME280;9503;53.560;10.246;2023-04-26T11:50:21;100907.72;;;18.17;47.31
18749;BME280;9503;53.560;10.246;2023-04-26T11:52:53;100904.84;;;17.27;47.99
18749;BME280;9503;53.560;10.246;2023-04-26T11:55:22;100912.94;;;17.04;48.39
18749;BME280;9503;53.560;10.246;2023-04-26T11:57:49;100913.38;;;17.60;47.27
18749;BME280;9503;53.560;10.246;2023-04-26T12:00:17;100903.31;;;16.36;48.64
18749;BME280;9503;53.560;10.246;2023-04-26T12:02:44;100915.22;;;17.27;50.19
18749;BME280;9503;53.560;10.246;2023-04-26T12:05:20;100904.53;;;18.31;47.41
18749;BME280;9503;53.560;10.246;2023-04-26T12:07:49;100906.75;;;19.03;46.65
18749;BME280;9503;53.560;10.246;2023-04-26T12:10:19;100917.16;;;18.14;46.42
18749;BME280;9503;53.560;10.246;2023-04-26T12:12:47;100921.69;;;17.09;47.12
18749;BME280;9503;53.560;10.246;2023-04-26T12:15:14;100921.66;;;17.44;46.19
18749;BME280;9503;53.560;10.246;2023-04-26T12:17:51;100918.81;;;18.10;45.68
18749;BME280;9503;53.560;10.246;2023-04-26T12:20:18;100925.06;;;17.42;45.62
18749;BME280;9503;53.560;10.246;2023-04-26T12:22:56;100926.91;;;18.26;45.08
18749;BME280;9503;53.560;10.246;2023-04-26T12:25:24;100931.28;;;18.70;43.68
18749;BME280;9503;53.560;10.246;2023-04-26T12:27:51;100915.56;;;18.20;41.57
18749;BME280;9503;53.560;10.246;2023-04-26T12:30:21;100928.53;;;17.42;42.23
18749;BME280;9503;53.560;10.246;2023-04-26T12:32:47;100927.94;;;16.83;43.69
18749;BME280;9503;53.560;10.246;2023-04-26T12:35:14;100933.75;;;17.80;43.67
18749;BME280;9503;53.560;10.246;2023-04-26T12:37:41;100919.28;;;18.78;42.81
18749;BME280;9503;53.560;10.246;2023-04-26T12:40:08;100928.50;;;18.17;43.75
18749;BME280;9503;53.560;10.246;2023-04-26T12:42:37;100918.56;;;18.40;44.35
18749;BME280;9503;53.560;10.246;2023-04-26T12:45:05;100923.44;;;17.10;46.35
18749;BME280;9503;53.560;10.246;2023-04-26T12:47:32;100928.22;;;16.95;45.90
18749;BME280;9503;53.560;10.246;2023-04-26T12:49:58;100929.41;;;17.79;45.16
18749;BME280;9503;53.560;10.246;2023-04-26T12:52:25;100922.34;;;17.73;45.21
18749;BME280;9503;53.560;10.246;2023-04-26T12:54:52;100919.56;;;18.47;45.02
18749;BME280;9503;53.560;10.246;2023-04-26T12:57:19;100918.78;;;17.32;44.96
18749;BME280;9503;53.560;10.246;2023-04-26T12:59:48;100913.47;;;18.03;44.12
18749;BME280;9503;53.560;10.246;2023-04-26T13:02:14;100928.75;;;17.51;45.18
18749;BME280;9503;53.560;10.246;2023-04-26T13:04:41;100932.97;;;17.48;45.50